Time;durP1;ratioP1;P1;durP2;ratioP2;P2;SDS_P1;SDS_P2;PMS_P1;PMS_P2;Temp;Humidity;BMP_temperature;BMP_pressure;BME280_temperature;BME280_humidity;BME280_pressure;Samples;Min_cycle;Max_cycle;Signal;HPM_P1;HPM_P2
2022/07/11 00:01:27;;;;;;;2.23;1.00;;;;;;;;;;7377418;19;20179;-80
2022/07/11 00:03:52;;;;;;;4.40;1.20;;;;;;;;;;7370380;19;20152;-77
2022/07/11 00:06:17;;;;;;;3.57;1.27;;;;;;;;;;7378696;19;20128;-77
2022/07/11 00:08:43;;;;;;;3.27;1.40;;;;;;;;;;7370860;19;20541;-78
2022/07/11 00:11:08;;;;;;;2.10;1.23;;;;;;;;;;7371582;19;20633;-78
2022/07/11 00:13:33;;;;;;;3.20;1.30;;;;;;;;;;7374874;19;20181;-78
2022/07/11 00:15:59;;;;;;;3.10;1.30;;;;;;;;;;7382023;19;20507;-77
2022/07/11 00:18:25;;;;;;;2.33;1.20;;;;;;;;;;7372427;19;20610;-77
2022/07/11 00:20:50;;;;;;;1.47;1.20;;;;;;;;;;7371232;19;20531;-79
2022/07/11 00:23:16;;;;;;;3.77;1.17;;;;;;;;;;7374329;19;20140;-78
2022/07/11 00:25:41;;;;;;;3.03;1.20;;;;;;;;;;7373078;19;20677;-78
2022/07/11 00:28:06;;;;;;;2.07;1.30;;;;;;;;;;7371254;19;20121;-76
2022/07/11 00:30:32;;;;;;;2.37;1.37;;;;;;;;;;7368400;19;20152;-77
2022/07/11 00:32:57;;;;;;;2.93;1.10;;;;;;;;;;7374886;19;20136;-77
2022/07/11 00:35:22;;;;;;;2.00;1.00;;;;;;;;;;7368696;19;20124;-78
2022/07/11 00:37:48;;;;;;;4.17;1.20;;;;;;;;;;7367214;19;20141;-77
2022/07/11 00:40:13;;;;;;;2.00;1.10;;;;;;;;;;7371596;19;20133;-77
2022/07/11 00:42:38;;;;;;;2.97;1.30;;;;;;;;;;7373065;19;20580;-76
2022/07/11 00:45:04;;;;;;;3.17;1.50;;;;;;;;;;7373680;19;20468;-76
2022/07/11 00:47:29;;;;;;;2.10;1.23;;;;;;;;;;7372802;19;20475;-77
2022/07/11 00:49:55;;;;;;;2.40;1.17;;;;;;;;;;7361920;19;20138;-76
2022/07/11 00:52:20;;;;;;;4.20;1.80;;;;;;;;;;7367037;19;20148;-76
2022/07/11 00:54:46;;;;;;;2.00;1.40;;;;;;;;;;7380550;19;20152;-77
2022/07/11 00:57:11;;;;;;;2.87;1.30;;;;;;;;;;7376259;19;20594;-78
2022/07/11 00:59:37;;;;;;;2.60;1.30;;;;;;;;;;7375344;19;20148;-77
2022/07/11 01:02:04;;;;;;;5.07;1.30;;;;;;;;;;7366379;19;20140;-76
2022/07/11 01:04:29;;;;;;;3.27;1.53;;;;;;;;;;7369568;19;20516;-77
2022/07/11 01:06:55;;;;;;;1.80;1.30;;;;;;;;;;7369641;19;20192;-77
2022/07/11 01:09:20;;;;;;;2.30;1.60;;;;;;;;;;7374353;19;20125;-76
2022/07/11 01:11:45;;;;;;;2.37;1.40;;;;;;;;;;7382776;19;20181;-77
2022/07/11 01:14:11;;;;;;;3.47;1.40;;;;;;;;;;7388503;19;20644;-77
2022/07/11 01:16:36;;;;;;;3.07;1.40;;;;;;;;;;7387441;19;20137;-77
2022/07/11 01:19:01;;;;;;;4.17;2.00;;;;;;;;;;7383832;19;20513;-77
2022/07/11 01:21:40;;;;;;;2.50;1.10;;;;;;;;;;7375146;19;20212;-77
2022/07/11 01:24:06;;;;;;;1.50;1.20;;;;;;;;;;7383766;19;20141;-77
2022/07/11 01:26:34;;;;;;;3.03;1.80;;;;;;;;;;7384906;19;20165;-77
2022/07/11 01:29:11;;;;;;;2.37;1.50;;;;;;;;;;7386633;19;20212;-77
2022/07/11 01:31:43;;;;;;;1.80;1.37;;;;;;;;;;7386017;19;20618;-77
2022/07/11 01:34:08;;;;;;;3.10;1.60;;;;;;;;;;7381850;19;20125;-77
2022/07/11 01:36:34;;;;;;;3.10;1.50;;;;;;;;;;7377570;19;20476;-76
2022/07/11 01:38:59;;;;;;;2.57;1.70;;;;;;;;;;7379302;19;20141;-78
2022/07/11 01:41:25;;;;;;;3.77;2.17;;;;;;;;;;7379485;19;20261;-76
2022/07/11 01:43:51;;;;;;;3.90;1.80;;;;;;;;;;7382341;19;20558;-77
2022/07/11 01:46:17;;;;;;;2.37;1.60;;;;;;;;;;7382857;19;20121;-76
2022/07/11 01:48:43;;;;;;;5.23;1.93;;;;;;;;;;7393080;19;20121;-76
2022/07/11 01:51:08;;;;;;;2.23;1.50;;;;;;;;;;7392436;19;20153;-76
2022/07/11 01:53:34;;;;;;;3.90;1.70;;;;;;;;;;7384808;19;20137;-77
2022/07/11 01:55:59;;;;;;;3.87;1.50;;;;;;;;;;7383786;19;20140;-77
2022/07/11 01:58:24;;;;;;;2.50;1.63;;;;;;;;;;7375140;19;20151;-78
2022/07/11 02:00:49;;;;;;;2.20;1.63;;;;;;;;;;7374125;19;20179;-77
2022/07/11 02:03:16;;;;;;;2.67;1.70;;;;;;;;;;7367476;19;20499;-76
2022/07/11 02:05:41;;;;;;;2.73;1.70;;;;;;;;;;7373935;19;20162;-76
2022/07/11 02:08:13;;;;;;;2.40;1.60;;;;;;;;;;7376424;19;20125;-77
2022/07/11 02:10:47;;;;;;;3.13;1.80;;;;;;;;;;7384946;19;20149;-78
2022/07/11 02:13:13;;;;;;;3.10;1.70;;;;;;;;;;7386622;19;20129;-77
2022/07/11 02:15:39;;;;;;;4.93;1.80;;;;;;;;;;7384795;19;20681;-77
2022/07/11 02:18:05;;;;;;;2.93;1.80;;;;;;;;;;7368403;19;20132;-77
2022/07/11 02:20:31;;;;;;;4.77;1.90;;;;;;;;;;7379373;19;20149;-77
2022/07/11 02:22:58;;;;;;;3.10;2.10;;;;;;;;;;7376740;19;20182;-76
2022/07/11 02:25:23;;;;;;;5.37;1.60;;;;;;;;;;7379422;19;20153;-79
2022/07/11 02:27:50;;;;;;;2.60;1.90;;;;;;;;;;7378729;19;20147;-78
2022/07/11 02:30:15;;;;;;;3.43;1.77;;;;;;;;;;7365099;19;20193;-77
2022/07/11 02:32:42;;;;;;;4.20;2.00;;;;;;;;;;7375746;19;20609;-76
2022/07/11 02:35:08;;;;;;;2.63;1.63;;;;;;;;;;7368794;19;20165;-77
2022/07/11 02:37:33;;;;;;;2.90;1.93;;;;;;;;;;7362727;19;20564;-77
2022/07/11 02:39:58;;;;;;;3.73;2.10;;;;;;;;;;7373446;19;20225;-77
2022/07/11 02:42:23;;;;;;;4.97;2.30;;;;;;;;;;7362373;19;20145;-77
2022/07/11 02:44:49;;;;;;;4.03;1.93;;;;;;;;;;7372150;19;20610;-77
2022/07/11 02:47:14;;;;;;;2.20;1.87;;;;;;;;;;7377741;19;20133;-78
2022/07/11 02:49:40;;;;;;;3.10;1.90;;;;;;;;;;7369053;19;20568;-78
2022/07/11 02:52:05;;;;;;;3.13;1.90;;;;;;;;;;7378863;19;20141;-77
2022/07/11 02:54:31;;;;;;;3.97;2.20;;;;;;;;;;7382077;19;20148;-77
2022/07/11 02:56:56;;;;;;;2.90;1.97;;;;;;;;;;7383833;19;20128;-77
2022/07/11 02:59:22;;;;;;;3.67;2.33;;;;;;;;;;7373046;19;20578;-77
2022/07/11 03:01:48;;;;;;;2.60;1.73;;;;;;;;;;7376969;19;20693;-77
2022/07/11 03:04:13;;;;;;;3.20;2.20;;;;;;;;;;7374035;19;20171;-77
2022/07/11 03:06:38;;;;;;;4.20;2.07;;;;;;;;;;7380994;19;20175;-76
2022/07/11 03:09:04;;;;;;;4.23;1.60;;;;;;;;;;7380737;19;20136;-77
2022/07/11 03:11:30;;;;;;;3.47;1.70;;;;;;;;;;7376166;19;20149;-76
2022/07/11 03:13:56;;;;;;;3.43;2.10;;;;;;;;;;7378101;19;20184;-79
2022/07/11 03:16:21;;;;;;;4.37;2.00;;;;;;;;;;7380784;19;20140;-76
2022/07/11 03:18:46;;;;;;;3.10;2.07;;;;;;;;;;7376817;19;20602;-77
2022/07/11 03:21:12;;;;;;;4.47;1.87;;;;;;;;;;7377179;19;20522;-80
2022/07/11 03:23:37;;;;;;;4.53;2.43;;;;;;;;;;7377483;19;20148;-79
2022/07/11 03:26:03;;;;;;;4.87;2.00;;;;;;;;;;7374394;19;20136;-79
2022/07/11 03:28:28;;;;;;;3.10;2.20;;;;;;;;;;7378753;19;20129;-79
2022/07/11 03:30:54;;;;;;;3.80;1.87;;;;;;;;;;7372213;19;20545;-78
2022/07/11 03:33:20;;;;;;;3.57;1.80;;;;;;;;;;7375237;19;20665;-78
2022/07/11 03:35:46;;;;;;;5.83;2.20;;;;;;;;;;7378347;19;20489;-77
2022/07/11 03:38:12;;;;;;;2.33;1.73;;;;;;;;;;7378377;19;20155;-80
2022/07/11 03:40:38;;;;;;;2.60;1.90;;;;;;;;;;7378884;19;20168;-79
2022/07/11 03:43:04;;;;;;;3.20;1.90;;;;;;;;;;7373443;19;20517;-79
2022/07/11 03:45:29;;;;;;;3.80;2.07;;;;;;;;;;7374548;19;20543;-77
2022/07/11 03:47:54;;;;;;;5.43;2.20;;;;;;;;;;7375308;19;20496;-80
2022/07/11 03:50:20;;;;;;;3.63;1.90;;;;;;;;;;7375523;19;20153;-79
2022/07/11 03:52:46;;;;;;;2.57;1.80;;;;;;;;;;7377683;19;20190;-78
2022/07/11 03:55:11;;;;;;;3.60;2.00;;;;;;;;;;7379632;19;20164;-79
2022/07/11 03:57:37;;;;;;;4.53;2.27;;;;;;;;;;7375927;19;20152;-78
2022/07/11 04:00:07;;;;;;;4.97;2.43;;;;;;;;;;7374706;19;20133;-79
2022/07/11 04:02:33;;;;;;;3.20;1.70;;;;;;;;;;7377884;19;20156;-78
2022/07/11 04:04:59;;;;;;;4.70;2.00;;;;;;;;;;7373124;19;20125;-79
2022/07/11 04:07:24;;;;;;;3.77;2.10;;;;;;;;;;7413423;19;20136;-78
2022/07/11 04:09:50;;;;;;;3.33;1.80;;;;;;;;;;7412323;19;20133;-80
2022/07/11 04:12:17;;;;;;;3.30;2.33;;;;;;;;;;7412399;19;20149;-77
2022/07/11 04:14:43;;;;;;;3.80;2.43;;;;;;;;;;7411770;19;20125;-77
2022/07/11 04:17:08;;;;;;;2.93;2.03;;;;;;;;;;7383687;19;20157;-77
2022/07/11 04:19:34;;;;;;;6.10;2.20;;;;;;;;;;7377438;19;20132;-78
2022/07/11 04:21:59;;;;;;;4.13;2.10;;;;;;;;;;7379483;19;20141;-77
2022/07/11 04:24:25;;;;;;;5.87;2.50;;;;;;;;;;7376282;19;20838;-77
2022/07/11 04:26:50;;;;;;;3.47;2.30;;;;;;;;;;7375676;19;20572;-78
2022/07/11 04:29:15;;;;;;;5.20;1.90;;;;;;;;;;7383062;19;20189;-77
2022/07/11 04:31:41;;;;;;;3.90;2.00;;;;;;;;;;7381059;19;20176;-77
2022/07/11 04:34:06;;;;;;;3.13;1.83;;;;;;;;;;7382883;19;20510;-77
2022/07/11 04:36:32;;;;;;;5.87;2.20;;;;;;;;;;7381220;19;20149;-77
2022/07/11 04:38:58;;;;;;;3.30;2.40;;;;;;;;;;7384152;19;20609;-79
2022/07/11 04:41:23;;;;;;;3.23;2.10;;;;;;;;;;7384608;19;20149;-77
2022/07/11 04:43:48;;;;;;;4.43;2.43;;;;;;;;;;7381699;19;20152;-77
2022/07/11 04:46:14;;;;;;;4.27;2.00;;;;;;;;;;7385228;19;20455;-77
2022/07/11 04:48:39;;;;;;;5.40;1.97;;;;;;;;;;7385295;19;20117;-78
2022/07/11 04:51:06;;;;;;;3.00;1.87;;;;;;;;;;7380872;19;20201;-77
2022/07/11 04:53:31;;;;;;;5.87;2.30;;;;;;;;;;7384544;19;20444;-77
2022/07/11 04:55:56;;;;;;;3.93;2.47;;;;;;;;;;7383276;19;20144;-77
2022/07/11 04:58:21;;;;;;;4.63;2.30;;;;;;;;;;7380298;19;20216;-78
2022/07/11 05:00:47;;;;;;;4.13;2.13;;;;;;;;;;7384433;19;20149;-77
2022/07/11 05:03:12;;;;;;;4.97;2.43;;;;;;;;;;7384523;19;20455;-77
2022/07/11 05:05:37;;;;;;;4.30;2.10;;;;;;;;;;7382215;19;20124;-78
2022/07/11 05:08:03;;;;;;;3.47;2.20;;;;;;;;;;7384515;19;20141;-79
2022/07/11 05:10:31;;;;;;;3.23;2.17;;;;;;;;;;7384052;19;20632;-78
2022/07/11 05:12:56;;;;;;;5.23;2.47;;;;;;;;;;7397200;19;20159;-78
2022/07/11 05:15:22;;;;;;;3.53;1.93;;;;;;;;;;7396067;19;20183;-78
2022/07/11 05:17:47;;;;;;;3.43;2.03;;;;;;;;;;7394363;19;20153;-77
2022/07/11 05:20:13;;;;;;;5.90;2.37;;;;;;;;;;7388465;19;20778;-78
2022/07/11 05:22:38;;;;;;;4.00;1.80;;;;;;;;;;7392459;19;20153;-79
2022/07/11 05:25:04;;;;;;;3.00;2.10;;;;;;;;;;7388400;19;20135;-78
2022/07/11 05:27:29;;;;;;;3.47;2.17;;;;;;;;;;7392396;19;20142;-78
2022/07/11 05:29:54;;;;;;;4.10;2.07;;;;;;;;;;7390953;19;20144;-77
2022/07/11 05:32:20;;;;;;;4.43;1.90;;;;;;;;;;7388858;19;20148;-79
2022/07/11 05:34:45;;;;;;;5.50;2.10;;;;;;;;;;7396250;19;20128;-78
2022/07/11 05:37:10;;;;;;;3.97;1.73;;;;;;;;;;7396904;19;20196;-80
2022/07/11 05:39:36;;;;;;;2.47;1.77;;;;;;;;;;7391001;19;20614;-79
2022/07/11 05:42:01;;;;;;;4.70;1.97;;;;;;;;;;7380316;19;20530;-79
2022/07/11 17:39:14;;;;;;;2.08;1.20;;;;;;;;;;7394801;19;20196;-79
2022/07/11 17:41:40;;;;;;;1.40;1.30;;;;;;;;;;7394149;19;20739;-78
2022/07/11 17:44:05;;;;;;;2.40;1.30;;;;;;;;;;7388779;19;20125;-78
2022/07/11 17:46:31;;;;;;;2.78;1.35;;;;;;;;;;7396804;19;20168;-78
2022/07/11 17:48:56;;;;;;;1.38;1.23;;;;;;;;;;7393524;19;20131;-79
2022/07/11 17:51:21;;;;;;;1.88;1.02;;;;;;;;;;7391669;19;20902;-79
2022/07/11 17:53:48;;;;;;;1.75;1.17;;;;;;;;;;7390938;19;20133;-78
2022/07/11 17:56:13;;;;;;;3.58;1.20;;;;;;;;;;7393915;19;20132;-79
2022/07/11 17:58:38;;;;;;;1.20;1.10;;;;;;;;;;7397342;19;20125;-79
2022/07/11 18:01:04;;;;;;;1.40;1.27;;;;;;;;;;7385882;19;20642;-79
2022/07/11 18:03:32;;;;;;;1.65;1.55;;;;;;;;;;7383722;19;20148;-79
2022/07/11 18:05:57;;;;;;;2.88;2.08;;;;;;;;;;7382423;19;20121;-79
2022/07/11 18:08:22;;;;;;;1.88;1.60;;;;;;;;;;7386204;19;20610;-78
2022/07/11 18:10:48;;;;;;;4.55;1.40;;;;;;;;;;7368913;19;20813;-78
2022/07/11 18:13:13;;;;;;;2.17;1.20;;;;;;;;;;7371419;19;21412;-79
2022/07/11 18:15:38;;;;;;;2.03;1.10;;;;;;;;;;7407023;19;20169;-78
2022/07/11 18:18:04;;;;;;;1.70;1.10;;;;;;;;;;7407685;19;22931;-78
2022/07/11 18:20:29;;;;;;;2.45;1.00;;;;;;;;;;7409316;19;20168;-78
2022/07/11 18:22:55;;;;;;;3.08;1.20;;;;;;;;;;7408973;19;20153;-77
2022/07/11 18:25:20;;;;;;;4.05;1.38;;;;;;;;;;7419554;19;20134;-78
2022/07/11 18:27:45;;;;;;;1.02;1.00;;;;;;;;;;7399780;19;20118;-78
2022/07/11 18:30:11;;;;;;;2.03;1.17;;;;;;;;;;7402835;19;20128;-78
2022/07/11 18:32:36;;;;;;;2.65;0.90;;;;;;;;;;7409286;19;20153;-78
2022/07/11 18:35:02;;;;;;;1.27;1.17;;;;;;;;;;7406664;19;22065;-78
2022/07/11 18:37:28;;;;;;;1.50;1.05;;;;;;;;;;7407758;19;20140;-78
2022/07/11 18:42:37;;;;;;;1.55;1.10;;;;;;;;;;7396152;19;20287;-78
2022/07/11 18:45:03;;;;;;;2.15;1.00;;;;;;;;;;7401299;19;20125;-78
2022/07/11 18:47:28;;;;;;;2.55;1.00;;;;;;;;;;7401924;19;20141;-78
2022/07/11 18:49:54;;;;;;;1.83;0.98;;;;;;;;;;7387581;19;20863;-77
2022/07/11 18:52:23;;;;;;;0.90;0.82;;;;;;;;;;7379385;19;20179;-78
2022/07/11 18:54:50;;;;;;;1.27;0.80;;;;;;;;;;7388060;19;20125;-77
2022/07/11 18:57:18;;;;;;;2.55;0.93;;;;;;;;;;7384394;19;20156;-77
2022/07/11 18:59:47;;;;;;;3.45;1.00;;;;;;;;;;7395483;19;20133;-77
2022/07/11 19:02:12;;;;;;;1.85;0.80;;;;;;;;;;7386576;19;20181;-77
2022/07/11 19:04:38;;;;;;;1.35;0.90;;;;;;;;;;7384900;19;20152;-76
2022/07/11 19:07:04;;;;;;;1.55;1.00;;;;;;;;;;7379266;19;20176;-76
2022/07/11 19:09:29;;;;;;;1.50;0.90;;;;;;;;;;7378828;19;20159;-77
2022/07/11 19:11:54;;;;;;;1.83;0.90;;;;;;;;;;7381280;19;20526;-77
2022/07/11 19:14:19;;;;;;;3.83;1.00;;;;;;;;;;7398033;19;20617;-77
2022/07/11 19:16:45;;;;;;;1.38;1.13;;;;;;;;;;7393036;19;20234;-77
2022/07/11 19:19:11;;;;;;;1.80;1.13;;;;;;;;;;7409707;19;20121;-76
2022/07/11 19:21:37;;;;;;;3.15;1.23;;;;;;;;;;7413014;19;20136;-76
2022/07/11 19:24:03;;;;;;;1.75;0.90;;;;;;;;;;7415396;19;20406;-77
2022/07/11 19:26:28;;;;;;;3.05;1.00;;;;;;;;;;7417387;19;20172;-76
2022/07/11 19:28:54;;;;;;;1.10;1.00;;;;;;;;;;7379009;19;20140;-77
2022/07/11 19:31:19;;;;;;;1.40;1.10;;;;;;;;;;7372108;19;20178;-77
2022/07/11 19:33:44;;;;;;;6.70;1.10;;;;;;;;;;7379793;19;20171;-78
2022/07/11 19:36:09;;;;;;;2.75;0.73;;;;;;;;;;7366318;19;20148;-77
2022/07/11 19:38:35;;;;;;;0.80;0.80;;;;;;;;;;7368744;19;20580;-77
2022/07/11 19:41:00;;;;;;;1.27;1.00;;;;;;;;;;7370541;19;20150;-76
2022/07/11 19:43:26;;;;;;;0.80;0.80;;;;;;;;;;7367473;19;20171;-76
2022/07/11 19:45:53;;;;;;;2.08;0.95;;;;;;;;;;7372075;19;20136;-76
2022/07/11 19:48:19;;;;;;;3.42;1.00;;;;;;;;;;7375931;19;20137;-77
2022/07/11 19:50:44;;;;;;;2.20;0.82;;;;;;;;;;7365710;19;22489;-76
2022/07/11 19:53:09;;;;;;;1.08;0.80;;;;;;;;;;7370949;19;20592;-76
2022/07/11 19:58:19;;;;;;;2.75;1.85;;;;;;;;;;7369201;19;20136;-76
2022/07/11 20:00:45;;;;;;;2.25;1.30;;;;;;;;;;7371267;19;20172;-76
2022/07/11 20:03:10;;;;;;;1.70;1.50;;;;;;;;;;7382315;19;20501;-76
2022/07/11 20:05:36;;;;;;;1.30;1.20;;;;;;;;;;7384905;19;20505;-78
2022/07/11 20:08:02;;;;;;;2.78;0.93;;;;;;;;;;7375680;19;20678;-76
2022/07/11 20:10:27;;;;;;;2.55;1.10;;;;;;;;;;7373443;19;20149;-76
2022/07/11 20:12:53;;;;;;;2.80;1.23;;;;;;;;;;7382825;19;20123;-77
2022/07/11 20:15:18;;;;;;;4.00;1.10;;;;;;;;;;7379403;19;20360;-77
2022/07/11 20:17:43;;;;;;;1.20;1.10;;;;;;;;;;7380343;19;20609;-76
2022/07/11 20:20:09;;;;;;;1.92;1.02;;;;;;;;;;7381038;19;22429;-76
2022/07/11 20:22:35;;;;;;;1.42;1.08;;;;;;;;;;7384076;19;20152;-76
2022/07/11 20:25:05;;;;;;;1.20;1.10;;;;;;;;;;7379422;19;20156;-76
2022/07/11 20:27:31;;;;;;;1.75;1.00;;;;;;;;;;7371148;19;20137;-77
2022/07/11 20:29:57;;;;;;;2.55;1.00;;;;;;;;;;7372755;19;20147;-76
2022/07/11 20:32:23;;;;;;;2.60;1.05;;;;;;;;;;7377862;19;20169;-77
2022/07/11 20:34:49;;;;;;;2.35;1.23;;;;;;;;;;7375656;19;20156;-76
2022/07/11 20:37:15;;;;;;;0.90;0.80;;;;;;;;;;7376880;19;20147;-76
2022/07/11 20:39:40;;;;;;;3.33;0.90;;;;;;;;;;7368986;19;20128;-79
2022/07/11 20:42:05;;;;;;;1.00;0.90;;;;;;;;;;7372425;19;20184;-77
2022/07/11 20:44:31;;;;;;;1.48;1.00;;;;;;;;;;7373374;19;20121;-79
2022/07/11 20:46:56;;;;;;;3.70;1.10;;;;;;;;;;7378677;19;20137;-77
2022/07/11 20:49:21;;;;;;;2.65;1.27;;;;;;;;;;7369968;19;20502;-76
2022/07/11 20:51:47;;;;;;;1.67;0.90;;;;;;;;;;7381696;19;20149;-77
2022/07/11 20:54:12;;;;;;;4.75;0.90;;;;;;;;;;7377836;19;20136;-78
2022/07/11 20:56:38;;;;;;;1.90;1.05;;;;;;;;;;7393299;19;20132;-78
2022/07/11 20:59:03;;;;;;;1.30;1.10;;;;;;;;;;7384921;19;20582;-79
2022/07/11 21:01:31;;;;;;;2.78;1.20;;;;;;;;;;7405882;19;20141;-77
2022/07/11 21:03:58;;;;;;;3.25;1.40;;;;;;;;;;7407910;19;20136;-79
2022/07/11 21:06:24;;;;;;;1.75;1.23;;;;;;;;;;7387670;19;20145;-78
2022/07/11 21:08:49;;;;;;;1.50;1.30;;;;;;;;;;7372053;19;20133;-78
2022/07/11 21:11:15;;;;;;;1.67;1.20;;;;;;;;;;7380345;19;20160;-80
2022/07/11 21:13:40;;;;;;;3.05;1.42;;;;;;;;;;7384973;19;20152;-77
2022/07/11 21:16:06;;;;;;;4.35;1.13;;;;;;;;;;7380880;19;20153;-77
2022/07/11 21:18:31;;;;;;;1.48;1.20;;;;;;;;;;7376803;19;20141;-78
2022/07/11 21:20:57;;;;;;;1.88;0.95;;;;;;;;;;7377997;19;20172;-77
2022/07/11 21:23:23;;;;;;;1.00;1.00;;;;;;;;;;7380842;19;20141;-78
2022/07/11 21:25:48;;;;;;;1.77;1.10;;;;;;;;;;7388634;19;20140;-76
2022/07/11 21:28:14;;;;;;;1.33;1.15;;;;;;;;;;7384382;19;20213;-78
2022/07/11 21:30:40;;;;;;;1.17;1.08;;;;;;;;;;7382968;19;20513;-78
2022/07/11 21:33:06;;;;;;;1.80;1.10;;;;;;;;;;7387865;19;20590;-77
2022/07/11 21:35:32;;;;;;;2.45;1.10;;;;;;;;;;7382607;19;20725;-76
2022/07/11 21:37:58;;;;;;;2.85;1.30;;;;;;;;;;7374964;19;20148;-76
2022/07/11 21:40:23;;;;;;;1.87;1.47;;;;;;;;;;7384287;19;20129;-76
2022/07/11 21:42:48;;;;;;;1.98;1.08;;;;;;;;;;7384300;19;20122;-76
2022/07/11 21:45:14;;;;;;;5.43;3.20;;;;;;;;;;7380002;19;20160;-78
2022/07/11 21:47:39;;;;;;;2.92;2.00;;;;;;;;;;7383862;19;20691;-76
2022/07/11 21:50:05;;;;;;;3.42;1.67;;;;;;;;;;7378078;19;20177;-76
2022/07/11 21:52:30;;;;;;;2.30;1.48;;;;;;;;;;7386420;19;20173;-77
2022/07/11 21:54:56;;;;;;;1.83;1.33;;;;;;;;;;7391869;19;20148;-78
2022/07/11 21:57:21;;;;;;;2.10;1.13;;;;;;;;;;7390739;19;20121;-76
2022/07/11 21:59:46;;;;;;;3.47;1.40;;;;;;;;;;7387466;19;20168;-77
2022/07/11 22:02:12;;;;;;;1.40;1.30;;;;;;;;;;7381494;19;20606;-77
2022/07/11 22:04:37;;;;;;;3.87;1.40;;;;;;;;;;7383354;19;20133;-77
2022/07/11 22:07:02;;;;;;;2.27;1.60;;;;;;;;;;7389707;19;20133;-77
2022/07/11 22:09:28;;;;;;;2.57;1.80;;;;;;;;;;7362534;19;20161;-77
2022/07/11 22:11:53;;;;;;;2.75;1.80;;;;;;;;;;7377016;19;20189;-76
2022/07/11 22:14:18;;;;;;;1.63;1.50;;;;;;;;;;7390632;19;20177;-76
2022/07/11 22:16:44;;;;;;;2.23;1.40;;;;;;;;;;7389657;19;20152;-75
2022/07/11 22:19:09;;;;;;;2.38;1.30;;;;;;;;;;7391722;19;20466;-77
2022/07/11 22:21:34;;;;;;;1.97;1.40;;;;;;;;;;7380393;19;20618;-76
2022/07/11 22:24:00;;;;;;;2.40;2.20;;;;;;;;;;7383321;19;20129;-77
2022/07/11 22:26:25;;;;;;;1.58;1.48;;;;;;;;;;7386879;19;20121;-76
2022/07/11 22:28:50;;;;;;;1.67;1.20;;;;;;;;;;7389474;19;20149;-76
2022/07/11 22:31:16;;;;;;;2.80;1.10;;;;;;;;;;7382635;19;20650;-77
2022/07/11 22:33:41;;;;;;;1.33;1.20;;;;;;;;;;7375598;19;20571;-77
2022/07/11 22:36:07;;;;;;;1.97;1.40;;;;;;;;;;7373170;19;20197;-77
2022/07/11 22:38:32;;;;;;;3.33;1.50;;;;;;;;;;7378422;19;20125;-77
2022/07/11 22:40:57;;;;;;;2.10;1.70;;;;;;;;;;7374975;19;20152;-76
2022/07/11 22:43:23;;;;;;;2.20;1.50;;;;;;;;;;7378687;19;20152;-77
2022/07/11 22:45:48;;;;;;;2.57;1.37;;;;;;;;;;7370903;19;20508;-77
2022/07/11 22:48:15;;;;;;;2.20;1.55;;;;;;;;;;7375450;19;20117;-76
2022/07/11 22:50:40;;;;;;;1.40;1.30;;;;;;;;;;7362503;19;20144;-77
2022/07/11 22:53:06;;;;;;;1.77;1.17;;;;;;;;;;7384183;19;20381;-78
2022/07/11 22:55:31;;;;;;;2.80;1.30;;;;;;;;;;7375204;19;20125;-77
2022/07/11 22:57:57;;;;;;;1.30;1.20;;;;;;;;;;7382067;19;20208;-77
2022/07/11 23:00:23;;;;;;;2.57;1.37;;;;;;;;;;7385897;19;21001;-78
2022/07/11 23:02:48;;;;;;;2.63;1.30;;;;;;;;;;7381554;19;20133;-77
2022/07/11 23:05:13;;;;;;;1.50;1.40;;;;;;;;;;7380794;19;20145;-80
2022/07/11 23:07:39;;;;;;;2.63;1.37;;;;;;;;;;7366000;19;20212;-76
2022/07/11 23:10:05;;;;;;;0.97;0.97;;;;;;;;;;7384234;19;20216;-76
2022/07/11 23:12:31;;;;;;;1.30;1.10;;;;;;;;;;7366534;19;20183;-77
2022/07/11 23:14:57;;;;;;;1.53;1.20;;;;;;;;;;7368888;19;20567;-76
2022/07/11 23:17:22;;;;;;;3.67;1.17;;;;;;;;;;7376251;19;20197;-76
2022/07/11 23:19:48;;;;;;;1.60;1.20;;;;;;;;;;7380673;19;20160;-77
2022/07/11 23:22:13;;;;;;;1.43;1.20;;;;;;;;;;7381090;19;20156;-77
2022/07/11 23:24:38;;;;;;;1.47;1.30;;;;;;;;;;7373423;19;20622;-78
2022/07/11 23:27:04;;;;;;;1.43;1.33;;;;;;;;;;7376161;19;20173;-77
2022/07/11 23:29:29;;;;;;;1.60;1.10;;;;;;;;;;7378661;19;20144;-78
2022/07/11 23:31:54;;;;;;;2.97;1.67;;;;;;;;;;7374388;19;20521;-76
2022/07/11 23:34:20;;;;;;;4.40;2.73;;;;;;;;;;7379140;19;20612;-77
2022/07/11 23:36:46;;;;;;;2.33;1.50;;;;;;;;;;7381669;19;20611;-77
2022/07/11 23:39:11;;;;;;;2.60;1.40;;;;;;;;;;7379192;19;20136;-76
2022/07/11 23:41:36;;;;;;;1.10;1.00;;;;;;;;;;7378342;19;20145;-78
2022/07/11 23:44:03;;;;;;;2.73;1.23;;;;;;;;;;7382334;19;20149;-76
2022/07/11 23:46:28;;;;;;;1.67;1.40;;;;;;;;;;7383383;19;20456;-77
2022/07/11 23:48:54;;;;;;;3.23;1.43;;;;;;;;;;7384708;19;20125;-76
2022/07/11 23:51:19;;;;;;;1.40;1.30;;;;;;;;;;7376827;19;20218;-77
2022/07/11 23:53:48;;;;;;;1.67;1.23;;;;;;;;;;7379665;19;20630;-78
2022/07/11 23:56:13;;;;;;;2.93;1.30;;;;;;;;;;7370267;19;20634;-78
2022/07/11 23:58:39;;;;;;;1.40;1.30;;;;;;;;;;7379690;19;20155;-76
